createdAt,value
2022-12-05T00:01:31.353Z,61.20
2022-12-05T00:04:00.852Z,64.18
2022-12-05T00:06:31.816Z,64.30
2022-12-05T00:09:01.150Z,66.90
2022-12-05T00:11:30.341Z,63.15
2022-12-05T00:13:58.754Z,70.18
2022-12-05T00:16:27.454Z,63.33
2022-12-05T00:18:54.583Z,67.00
2022-12-05T00:21:24.083Z,62.35
2022-12-05T00:23:51.923Z,58.80
2022-12-05T00:26:19.336Z,65.38
2022-12-05T00:28:46.246Z,59.33
2022-12-05T00:31:17.107Z,64.00
2022-12-05T00:33:45.061Z,58.63
2022-12-05T00:36:15.124Z,61.08
2022-12-05T00:38:42.589Z,56.20
2022-12-05T00:41:12.856Z,55.92
2022-12-05T00:43:39.896Z,56.38
2022-12-05T00:46:11.083Z,57.92
2022-12-05T00:48:40.108Z,58.88
2022-12-05T00:51:13.029Z,55.03
2022-12-05T00:53:39.944Z,54.95
2022-12-05T00:56:10.933Z,57.08
2022-12-05T00:58:40.793Z,56.75
2022-12-05T01:01:09.129Z,53.72
2022-12-05T01:03:36.460Z,52.85
2022-12-05T01:06:05.775Z,52.35
2022-12-05T01:08:34.313Z,51.58
2022-12-05T01:11:01.602Z,52.53
2022-12-05T01:13:29.044Z,54.53
2022-12-05T01:15:58.327Z,52.05
2022-12-05T01:18:25.877Z,52.40
2022-12-05T01:20:53.010Z,56.85
2022-12-05T01:23:25.037Z,54.30
2022-12-05T01:25:52.954Z,51.63
2022-12-05T01:28:22.757Z,51.28
2022-12-05T01:30:50.262Z,55.72
2022-12-05T01:33:17.934Z,53.63
2022-12-05T01:35:47.283Z,51.40
2022-12-05T01:38:14.040Z,50.58
2022-12-05T01:40:41.727Z,50.65
2022-12-05T01:43:17.380Z,51.83
2022-12-05T01:45:50.468Z,50.35
2022-12-05T01:48:22.843Z,54.15
2022-12-05T01:50:52.543Z,50.13
2022-12-05T01:53:21.950Z,50.80
2022-12-05T01:55:55.435Z,49.25
2022-12-05T01:58:26.420Z,54.00
2022-12-05T02:00:55.443Z,52.60
2022-12-05T02:03:23.103Z,53.38
2022-12-05T02:05:53.510Z,50.53
2022-12-05T02:08:20.823Z,49.47
2022-12-05T02:10:53.290Z,49.75
2022-12-05T02:13:52.418Z,50.15
2022-12-05T02:16:56.686Z,52.72
2022-12-05T02:20:03.972Z,48.80
2022-12-05T02:22:51.940Z,52.00
2022-12-05T02:25:41.637Z,51.80
2022-12-05T02:28:50.311Z,47.45
2022-12-05T02:31:35.092Z,49.63
2022-12-05T02:34:27.280Z,52.22
2022-12-05T02:39:52.992Z,48.28
2022-12-05T02:42:38.883Z,46.50
2022-12-05T02:45:10.242Z,50.40
2022-12-05T02:47:43.274Z,51.55
2022-12-05T02:50:16.809Z,48.58
2022-12-05T02:52:47.115Z,45.15
2022-12-05T02:55:15.783Z,51.55
2022-12-05T02:57:51.516Z,52.33
2022-12-05T03:00:18.674Z,49.58
2022-12-05T03:02:47.624Z,52.90
2022-12-05T03:05:30.273Z,46.95
2022-12-05T03:08:00.074Z,49.95
2022-12-05T03:10:29.808Z,52.35
2022-12-05T03:13:00.655Z,52.75
2022-12-05T03:15:38.449Z,46.75
2022-12-05T03:18:24.285Z,52.45
2022-12-05T03:21:03.855Z,48.05
2022-12-05T03:23:38.471Z,45.08
2022-12-05T03:26:20.595Z,48.55
2022-12-05T03:28:56.385Z,47.67
2022-12-05T03:31:45.294Z,50.38
2022-12-05T03:34:17.853Z,53.92
2022-12-05T03:36:49.268Z,47.72
2022-12-05T03:39:26.467Z,49.97
2022-12-05T03:42:22.554Z,46.70
2022-12-05T03:44:57.585Z,45.05
2022-12-05T03:47:40.918Z,53.13
2022-12-05T03:50:26.559Z,49.58
2022-12-05T03:56:11.257Z,44.88
2022-12-05T03:58:58.428Z,45.28
2022-12-05T04:01:29.210Z,47.47
2022-12-05T04:04:06.460Z,48.35
2022-12-05T04:06:39.249Z,47.65
2022-12-05T04:09:25.357Z,47.85
2022-12-05T04:11:59.131Z,48.88
2022-12-05T04:14:42.063Z,49.28
2022-12-05T04:17:24.424Z,47.85
2022-12-05T04:20:15.717Z,47.45
2022-12-05T04:22:44.107Z,48.80
2022-12-05T04:25:33.243Z,45.30
2022-12-05T04:28:21.942Z,46.85
2022-12-05T04:31:07.109Z,47.17
2022-12-05T04:33:56.727Z,47.10
2022-12-05T04:36:33.667Z,43.20
2022-12-05T04:39:20.559Z,45.00
2022-12-05T04:41:50.711Z,47.50
2022-12-05T04:44:20.794Z,42.03
2022-12-05T04:46:49.758Z,47.90
2022-12-05T04:49:22.008Z,48.05
2022-12-05T04:51:52.995Z,44.22
2022-12-05T04:54:30.700Z,44.67
2022-12-05T04:57:06.909Z,43.25
2022-12-05T04:59:36.212Z,51.20
2022-12-05T05:02:08.536Z,44.30
2022-12-05T05:04:38.108Z,45.63
2022-12-05T05:07:10.481Z,45.05
2022-12-05T05:09:40.540Z,46.20
2022-12-05T05:12:07.761Z,47.22
2022-12-05T05:14:34.621Z,44.55
2022-12-05T05:17:03.521Z,42.83
2022-12-05T05:19:32.689Z,45.85
2022-12-05T05:22:00.379Z,45.72
2022-12-05T05:24:27.527Z,46.22
2022-12-05T05:26:57.482Z,50.00
2022-12-05T05:29:26.847Z,44.97
2022-12-05T05:31:56.356Z,45.13
2022-12-05T05:34:25.395Z,48.90
2022-12-05T05:36:53.083Z,49.80
2022-12-05T05:39:19.830Z,44.22
2022-12-05T05:41:46.523Z,45.45
2022-12-05T05:44:13.295Z,47.10
2022-12-05T05:46:42.830Z,49.85
2022-12-05T05:49:15.348Z,47.03
2022-12-05T05:51:42.094Z,45.42
2022-12-05T05:54:09.251Z,45.92
2022-12-05T05:56:38.225Z,44.17
2022-12-05T05:59:07.996Z,43.35
2022-12-05T06:01:37.137Z,45.38
2022-12-05T06:04:06.293Z,48.13
2022-12-05T06:06:35.707Z,43.42
2022-12-05T06:09:02.385Z,48.42
2022-12-05T06:11:29.239Z,46.42
2022-12-05T06:13:57.672Z,46.00
2022-12-05T06:16:26.970Z,47.95
2022-12-05T06:18:56.692Z,48.55
2022-12-05T06:21:23.995Z,49.70
2022-12-05T06:23:53.366Z,48.90
2022-12-05T06:26:22.974Z,51.75
2022-12-05T06:28:49.962Z,47.05
2022-12-05T06:31:20.568Z,48.50
2022-12-05T06:33:48.167Z,55.38
2022-12-05T06:36:20.675Z,51.03
2022-12-05T06:38:47.494Z,47.13
2022-12-05T06:41:16.472Z,46.10
2022-12-05T06:43:45.878Z,48.15
2022-12-05T06:46:14.815Z,52.30
2022-12-05T06:48:44.330Z,48.63
2022-12-05T06:51:14.160Z,48.35
2022-12-05T06:53:43.542Z,47.45
2022-12-05T06:56:16.514Z,46.72
2022-12-05T06:58:44.701Z,49.92
2022-12-05T07:01:35.025Z,44.10
2022-12-05T07:04:02.592Z,46.25
2022-12-05T07:06:29.656Z,41.53
2022-12-05T07:08:56.472Z,46.05
2022-12-05T07:11:25.710Z,42.38
2022-12-05T07:13:52.754Z,43.58
2022-12-05T07:16:19.544Z,41.45
2022-12-05T07:18:46.411Z,42.95
2022-12-05T07:21:16.932Z,41.58
2022-12-05T07:23:48.064Z,39.33
2022-12-05T07:26:17.315Z,37.17
2022-12-05T07:28:44.019Z,35.47
2022-12-05T07:31:14.902Z,35.88
2022-12-05T07:33:44.517Z,35.25
2022-12-05T07:36:17.240Z,32.40
2022-12-05T07:38:44.913Z,31.95
2022-12-05T07:41:20.485Z,29.40
2022-12-05T07:43:49.435Z,31.70
2022-12-05T07:46:18.450Z,31.33
2022-12-05T07:48:48.017Z,31.00
2022-12-05T07:51:15.312Z,33.05
2022-12-05T07:53:44.575Z,31.38
2022-12-05T07:56:16.847Z,31.75
2022-12-05T07:58:45.329Z,31.17
2022-12-05T08:01:13.391Z,32.97
2022-12-05T08:03:40.397Z,33.47
2022-12-05T08:06:16.313Z,31.08
2022-12-05T08:08:43.424Z,31.50
2022-12-05T08:11:12.874Z,28.58
2022-12-05T08:13:39.662Z,28.33
2022-12-05T08:16:15.084Z,24.65
2022-12-05T08:18:42.743Z,24.65
2022-12-05T08:21:11.789Z,21.63
2022-12-05T08:23:39.483Z,21.42
2022-12-05T08:26:12.149Z,21.27
2022-12-05T08:28:39.381Z,22.15
2022-12-05T08:31:17.182Z,20.20
2022-12-05T08:33:44.416Z,19.98
2022-12-05T08:36:17.847Z,20.90
2022-12-05T08:38:45.519Z,20.20
2022-12-05T08:41:18.958Z,20.70
2022-12-05T08:43:45.650Z,19.13
2022-12-05T08:46:12.607Z,19.73
2022-12-05T08:48:39.480Z,22.38
2022-12-05T08:51:09.201Z,20.02
2022-12-05T08:53:43.913Z,17.30
2022-12-05T08:56:11.812Z,18.45
2022-12-05T08:58:38.906Z,19.45
2022-12-05T09:01:15.764Z,20.10
2022-12-05T09:03:47.771Z,21.30
2022-12-05T09:06:25.342Z,18.58
2022-12-05T09:08:57.179Z,16.98
2022-12-05T09:13:53.263Z,16.83
2022-12-05T09:16:35.096Z,19.27
2022-12-05T09:19:07.038Z,19.88
2022-12-05T09:21:33.725Z,17.58
2022-12-05T09:24:01.260Z,18.15
2022-12-05T09:26:30.091Z,20.60
2022-12-05T09:28:57.232Z,16.20
2022-12-05T09:31:27.753Z,16.40
2022-12-05T09:33:54.994Z,15.60
2022-12-05T09:36:24.957Z,15.85
2022-12-05T09:38:52.786Z,15.38
2022-12-05T09:41:59.071Z,14.35
2022-12-05T09:44:46.616Z,13.05
2022-12-05T09:47:28.654Z,14.88
2022-12-05T09:50:22.385Z,14.23
2022-12-05T09:53:00.139Z,13.88
2022-12-05T09:55:35.629Z,12.40
2022-12-05T09:58:12.266Z,11.85
2022-12-05T10:00:39.333Z,12.75
2022-12-05T10:03:19.368Z,12.90
2022-12-05T10:06:33.580Z,14.82
2022-12-05T10:09:29.233Z,14.10
2022-12-05T10:12:05.262Z,14.75
2022-12-05T10:14:46.357Z,13.18
2022-12-05T10:17:27.001Z,11.77
2022-12-05T10:19:59.519Z,15.32
2022-12-05T10:22:34.509Z,12.65
2022-12-05T10:25:08.675Z,13.02
2022-12-05T10:27:52.553Z,12.55
2022-12-05T10:30:26.380Z,13.40
2022-12-05T10:32:57.463Z,13.27
2022-12-05T10:35:36.615Z,11.27
2022-12-05T10:38:31.260Z,11.30
2022-12-05T10:41:07.024Z,14.27
2022-12-05T10:43:35.434Z,14.18
2022-12-05T10:46:03.234Z,13.45
2022-12-05T10:48:31.637Z,13.73
2022-12-05T10:50:59.880Z,13.63
2022-12-05T10:53:49.460Z,13.30
2022-12-05T10:56:43.206Z,13.65
2022-12-05T10:59:16.515Z,13.63
2022-12-05T11:01:50.426Z,16.67
2022-12-05T11:04:22.863Z,13.18
2022-12-05T11:06:57.772Z,14.07
2022-12-05T11:09:33.349Z,12.50
2022-12-05T11:12:21.415Z,13.40
2022-12-05T11:15:02.070Z,12.35
2022-12-05T11:17:40.008Z,13.80
2022-12-05T11:20:18.876Z,10.75
2022-12-05T11:22:52.651Z,11.45
2022-12-05T11:25:31.278Z,13.07
2022-12-05T11:28:22.759Z,11.02
2022-12-05T11:31:15.206Z,12.32
2022-12-05T11:33:44.082Z,10.88
2022-12-05T11:36:25.839Z,13.05
2022-12-05T11:38:55.356Z,14.18
2022-12-05T11:41:55.360Z,11.05
2022-12-05T11:44:42.795Z,12.45
2022-12-05T11:47:21.939Z,12.10
2022-12-05T11:50:14.729Z,12.35
2022-12-05T11:53:03.076Z,11.88
2022-12-05T11:55:38.074Z,12.07
2022-12-05T11:58:33.777Z,13.50
2022-12-05T12:01:23.581Z,11.85
2022-12-05T12:04:47.736Z,13.38
2022-12-05T12:07:26.187Z,12.65
2022-12-05T12:10:09.677Z,12.15
2022-12-05T12:13:02.028Z,13.95
2022-12-05T12:16:08.569Z,11.95
2022-12-05T12:19:16.549Z,12.15
2022-12-05T12:22:15.138Z,12.82
2022-12-05T12:25:23.203Z,11.43
2022-12-05T12:28:13.783Z,12.25
2022-12-05T12:30:59.334Z,13.35
2022-12-05T12:33:35.016Z,10.98
2022-12-05T12:36:10.816Z,11.88
2022-12-05T12:39:07.352Z,11.60
2022-12-05T12:41:52.456Z,12.63
2022-12-05T12:44:40.610Z,12.13
2022-12-05T12:47:25.406Z,12.55
2022-12-05T12:50:03.122Z,12.15
2022-12-05T12:52:58.706Z,15.38
2022-12-05T12:55:38.297Z,13.32
2022-12-05T12:58:38.523Z,12.98
2022-12-05T13:01:26.990Z,15.63
2022-12-05T13:04:12.313Z,14.18
2022-12-05T13:07:00.535Z,15.90
2022-12-05T13:09:42.045Z,14.95
2022-12-05T13:12:13.453Z,15.98
2022-12-05T13:14:49.626Z,15.38
2022-12-05T13:17:22.686Z,16.48
2022-12-05T13:19:53.975Z,15.43
2022-12-05T13:22:24.440Z,15.23
2022-12-05T13:24:52.695Z,14.15
2022-12-05T13:27:24.245Z,15.50
2022-12-05T13:30:05.263Z,15.35
2022-12-05T13:32:43.725Z,16.48
2022-12-05T13:35:13.870Z,16.80
2022-12-05T13:38:06.533Z,15.35
2022-12-05T13:41:00.059Z,17.30
2022-12-05T13:43:29.084Z,18.45
2022-12-05T13:46:10.925Z,18.23
2022-12-05T13:51:20.673Z,27.27
2022-12-05T13:54:15.014Z,26.83
2022-12-05T13:57:02.494Z,28.35
2022-12-05T14:00:00.070Z,24.95
2022-12-05T14:02:48.643Z,28.17
2022-12-05T14:05:21.776Z,27.48
2022-12-05T14:07:51.017Z,24.65
2022-12-05T14:10:43.905Z,28.88
2022-12-05T14:13:35.269Z,29.40
2022-12-05T14:16:28.478Z,26.77
2022-12-05T14:19:07.028Z,29.25
2022-12-05T14:21:40.648Z,28.65
2022-12-05T14:24:11.091Z,26.30
2022-12-05T14:26:40.587Z,27.88
2022-12-05T14:29:27.549Z,25.17
2022-12-05T14:32:19.765Z,23.45
2022-12-05T14:35:17.483Z,21.48
2022-12-05T14:38:07.787Z,22.00
2022-12-05T14:40:39.907Z,19.55
2022-12-05T14:43:26.323Z,24.10
2022-12-05T14:45:53.276Z,19.65
2022-12-05T14:48:20.037Z,17.98
2022-12-05T14:50:50.385Z,18.80
2022-12-05T14:53:38.820Z,19.08
2022-12-05T14:56:16.098Z,18.55
2022-12-05T14:59:04.526Z,17.95
2022-12-05T15:01:55.495Z,20.00
2022-12-05T15:04:46.514Z,21.02
2022-12-05T15:07:18.680Z,19.67
2022-12-05T15:09:57.742Z,24.17
2022-12-05T15:12:49.427Z,18.45
2022-12-05T15:15:41.942Z,17.15
2022-12-05T15:18:26.352Z,17.92
2022-12-05T15:20:58.634Z,16.75
2022-12-05T15:23:40.764Z,17.50
2022-12-05T15:26:46.176Z,17.05
2022-12-05T15:29:22.116Z,16.20
2022-12-05T15:31:56.112Z,15.52
2022-12-05T15:34:31.132Z,14.95
2022-12-05T15:37:03.909Z,15.30
2022-12-05T15:39:49.754Z,15.57
2022-12-05T15:42:16.585Z,16.83
2022-12-05T15:44:45.667Z,17.27
2022-12-05T15:47:29.228Z,14.05
2022-12-05T15:49:56.069Z,13.88
2022-12-05T15:52:41.814Z,13.98
2022-12-05T15:55:23.349Z,12.45
2022-12-05T15:58:01.191Z,14.52
2022-12-05T16:00:29.022Z,15.25
2022-12-05T16:03:18.229Z,13.32
2022-12-05T16:05:53.972Z,12.45
2022-12-05T16:08:24.531Z,15.57
2022-12-05T16:10:56.268Z,13.90
2022-12-05T16:13:26.974Z,16.38
2022-12-05T16:15:55.033Z,18.98
2022-12-05T16:18:30.822Z,15.43
2022-12-05T16:20:58.232Z,13.10
2022-12-05T16:23:33.510Z,13.93
2022-12-05T16:26:20.633Z,15.65
2022-12-05T16:29:04.198Z,17.77
2022-12-05T16:31:33.029Z,14.13
2022-12-05T16:34:14.716Z,13.75
2022-12-05T16:36:52.602Z,14.07
2022-12-05T16:39:23.024Z,13.07
2022-12-05T16:41:50.570Z,14.32
2022-12-05T16:44:57.661Z,14.93
2022-12-05T16:47:40.866Z,14.27
2022-12-05T16:50:34.829Z,12.82
2022-12-05T16:53:12.994Z,12.10
2022-12-05T16:55:43.218Z,10.45
2022-12-05T16:58:21.140Z,13.32
2022-12-05T17:00:47.997Z,11.48
2022-12-05T17:03:33.469Z,10.32
2022-12-05T17:06:01.224Z,10.10
2022-12-05T17:08:28.102Z,10.68
2022-12-05T17:10:54.885Z,11.45
2022-12-05T17:13:21.680Z,10.00
2022-12-05T17:15:48.537Z,12.02
2022-12-05T17:18:20.351Z,10.32
2022-12-05T17:23:17.679Z,9.88
2022-12-05T17:25:57.251Z,11.98
2022-12-05T17:28:24.827Z,11.80
2022-12-05T17:30:52.012Z,10.77
2022-12-05T17:33:19.509Z,12.05
2022-12-05T17:35:46.999Z,10.05
2022-12-05T17:38:14.265Z,9.30
2022-12-05T17:40:41.656Z,12.68
2022-12-05T17:43:19.918Z,9.85
2022-12-05T17:45:50.026Z,11.45
2022-12-05T17:48:18.941Z,10.00
2022-12-05T17:50:49.401Z,13.95
2022-12-05T17:53:19.653Z,11.05
2022-12-05T17:55:49.722Z,10.45
2022-12-05T17:58:17.184Z,11.50
2022-12-05T18:00:44.675Z,11.00
2022-12-05T18:03:19.291Z,9.73
2022-12-05T18:05:47.065Z,10.45
2022-12-05T18:08:17.119Z,10.93
2022-12-05T18:10:46.376Z,12.25
2022-12-05T18:13:14.502Z,10.65
2022-12-05T18:15:43.217Z,13.90
2022-12-05T18:18:14.787Z,9.73
2022-12-05T18:20:44.385Z,15.70
2022-12-05T18:23:12.090Z,16.63
2022-12-05T18:25:40.145Z,12.52
2022-12-05T18:28:06.989Z,12.90
2022-12-05T18:30:34.038Z,19.05
2022-12-05T18:33:02.957Z,15.15
2022-12-05T18:35:44.327Z,16.17
2022-12-05T18:38:11.428Z,12.90
2022-12-05T18:40:38.454Z,14.75
2022-12-05T18:43:05.514Z,13.43
2022-12-05T18:45:32.653Z,13.15
2022-12-05T18:48:09.889Z,13.32
2022-12-05T18:50:48.462Z,11.57
2022-12-05T18:53:17.529Z,12.50
2022-12-05T18:56:05.097Z,13.75
2022-12-05T18:58:31.706Z,10.52
2022-12-05T19:01:15.313Z,14.50
2022-12-05T19:03:42.098Z,11.43
2022-12-05T19:06:14.370Z,11.85
2022-12-05T19:08:41.744Z,10.80
2022-12-05T19:11:08.907Z,13.07
2022-12-05T19:13:36.252Z,10.15
2022-12-05T19:16:06.888Z,10.52
2022-12-05T19:18:36.533Z,14.27
2022-12-05T19:21:03.591Z,13.98
2022-12-05T19:23:33.378Z,11.82
2022-12-05T19:26:02.341Z,10.77
2022-12-05T19:28:31.834Z,12.30
2022-12-05T19:31:03.637Z,16.75
2022-12-05T19:36:07.734Z,12.63
2022-12-05T19:38:35.530Z,10.18
2022-12-05T19:41:05.761Z,11.10
2022-12-05T19:43:33.960Z,11.27
2022-12-05T19:46:15.818Z,14.82
2022-12-05T19:51:09.683Z,14.38
2022-12-05T19:53:38.679Z,11.90
2022-12-05T19:56:11.468Z,14.57
2022-12-05T19:58:38.754Z,14.23
2022-12-05T20:01:10.698Z,12.00
2022-12-05T20:03:38.609Z,14.27
2022-12-05T20:06:08.880Z,12.60
2022-12-05T20:08:38.866Z,11.18
2022-12-05T20:11:14.825Z,14.05
2022-12-05T20:13:46.981Z,14.13
2022-12-05T20:16:16.242Z,12.70
2022-12-05T20:18:43.098Z,15.40
2022-12-05T20:21:13.284Z,15.30
2022-12-05T20:23:40.511Z,13.93
2022-12-05T20:26:12.893Z,14.13
2022-12-05T20:28:42.685Z,15.35
2022-12-05T20:31:20.785Z,16.63
2022-12-05T20:33:52.832Z,10.95
2022-12-05T20:36:25.494Z,12.75
2022-12-05T20:39:02.749Z,14.95
2022-12-05T20:41:30.422Z,12.93
2022-12-05T20:44:00.058Z,13.75
2022-12-05T20:46:28.331Z,13.25
2022-12-05T20:48:56.460Z,15.65
2022-12-05T20:51:26.011Z,14.68
2022-12-05T20:53:53.055Z,13.20
2022-12-05T20:56:22.279Z,13.73
2022-12-05T20:58:50.878Z,13.65
2022-12-05T21:01:20.009Z,13.85
2022-12-05T21:03:49.709Z,16.98
2022-12-05T21:06:24.111Z,15.32
2022-12-05T21:08:51.763Z,12.52
2022-12-05T21:11:19.050Z,15.85
2022-12-05T21:13:48.174Z,14.73
2022-12-05T21:16:17.648Z,15.70
2022-12-05T21:18:47.140Z,15.60
2022-12-05T21:21:23.561Z,17.77
2022-12-05T21:23:56.075Z,17.08
2022-12-05T21:26:26.339Z,15.27
2022-12-05T21:28:53.362Z,16.80
2022-12-05T21:31:26.460Z,15.23
2022-12-05T21:33:55.798Z,13.00
2022-12-05T21:36:23.392Z,16.90
2022-12-05T21:38:55.598Z,17.10
2022-12-05T21:41:23.498Z,18.08
2022-12-05T21:43:54.397Z,13.20
2022-12-05T21:46:25.669Z,16.00
2022-12-05T21:48:55.703Z,13.98
2022-12-05T21:51:23.420Z,20.13
2022-12-05T21:53:51.046Z,14.77
2022-12-05T21:56:19.922Z,16.58
2022-12-05T21:58:47.105Z,16.25
2022-12-05T22:01:19.167Z,14.45
2022-12-05T22:03:52.339Z,14.40
2022-12-05T22:06:19.162Z,17.10
2022-12-05T22:08:45.868Z,14.23
2022-12-05T22:11:18.316Z,14.55
2022-12-05T22:13:45.849Z,13.05
2022-12-05T22:16:13.208Z,12.80
2022-12-05T22:18:40.613Z,12.15
2022-12-05T22:21:11.898Z,16.10
2022-12-05T22:23:38.826Z,16.20
2022-12-05T22:26:17.087Z,14.45
2022-12-05T22:28:44.557Z,18.10
2022-12-05T22:31:16.097Z,17.05
2022-12-05T22:33:43.491Z,15.73
2022-12-05T22:36:12.015Z,14.85
2022-12-05T22:38:43.467Z,13.98
2022-12-05T22:41:22.114Z,15.00
2022-12-05T22:43:53.149Z,15.75
2022-12-05T22:46:21.510Z,15.98
2022-12-05T22:48:51.019Z,15.38
2022-12-05T22:51:21.338Z,16.77
2022-12-05T22:53:51.233Z,15.85
2022-12-05T22:56:20.062Z,14.43
2022-12-05T22:58:46.974Z,15.95
2022-12-05T23:01:16.405Z,16.13
2022-12-05T23:03:44.912Z,20.20
2022-12-05T23:06:13.215Z,19.00
2022-12-05T23:08:43.357Z,17.88
2022-12-05T23:11:11.183Z,17.40
2022-12-05T23:13:38.583Z,17.23
2022-12-05T23:16:21.376Z,15.50
2022-12-05T23:18:50.005Z,16.25
2022-12-05T23:21:29.328Z,12.93
2022-12-05T23:23:58.598Z,16.70
2022-12-05T23:26:31.699Z,13.77
2022-12-05T23:28:58.688Z,13.75
2022-12-05T23:31:25.786Z,17.42
2022-12-05T23:33:58.463Z,16.60
2022-12-05T23:36:29.671Z,13.32
2022-12-05T23:38:56.446Z,14.95
2022-12-05T23:41:24.508Z,15.13
2022-12-05T23:43:51.786Z,12.98
2022-12-05T23:46:21.878Z,15.25
2022-12-05T23:48:48.999Z,14.88
2022-12-05T23:51:20.728Z,17.17
2022-12-05T23:56:21.942Z,13.00
2022-12-05T23:58:51.803Z,16.75
